Time;durP1;ratioP1;P1;durP2;ratioP2;P2;SDS_P1;SDS_P2;PMS_P1;PMS_P2;Temp;Humidity;BMP_temperature;BMP_pressure;BME280_temperature;BME280_humidity;BME280_pressure;Samples;Min_cycle;Max_cycle;Signal;HPM_P1;HPM_P2
2023/03/06 00:00:56;;;;;;;2.87;2.67;;;;;;;4.34;65.24;94657.69;4307610;32;20285;-55
2023/03/06 00:03:26;;;;;;;2.60;2.37;;;;;;;4.48;65.58;94663.91;4336452;32;20289;-61
2023/03/06 00:05:54;;;;;;;2.60;2.40;;;;;;;4.68;65.06;94652.50;4337641;32;20285;-56
2023/03/06 00:08:20;;;;;;;2.43;2.33;;;;;;;4.81;65.10;94650.03;4329532;32;20352;-54
2023/03/06 00:10:46;;;;;;;4.03;3.00;;;;;;;4.83;64.80;94649.75;4304185;32;20381;-55
2023/03/06 00:13:13;;;;;;;2.83;2.63;;;;;;;4.73;65.15;94642.75;4338571;32;20307;-54
2023/03/06 00:15:51;;;;;;;5.13;3.60;;;;;;;4.68;65.31;94640.13;4324887;32;20371;-55
2023/03/06 00:18:19;;;;;;;5.33;4.00;;;;;;;4.65;66.08;94638.06;4345207;32;20326;-54
2023/03/06 00:20:46;;;;;;;3.00;2.90;;;;;;;4.74;65.62;94644.31;4345166;32;20377;-56
2023/03/06 00:23:13;;;;;;;4.40;4.00;;;;;;;4.68;66.20;94637.50;4316121;32;20287;-52
2023/03/06 00:25:43;;;;;;;2.40;2.20;;;;;;;4.80;65.72;94640.56;4326037;32;20329;-53
2023/03/06 00:28:08;;;;;;;7.03;3.03;;;;;;;4.86;65.21;94622.94;4335428;32;20303;-56
2023/03/06 00:30:35;;;;;;;2.47;2.33;;;;;;;4.90;64.47;94626.59;4333729;32;20298;-56
2023/03/06 00:33:02;;;;;;;8.67;2.43;;;;;;;4.90;64.41;94628.44;4337949;32;20208;-56
2023/03/06 00:35:27;;;;;;;4.40;3.77;;;;;;;4.73;64.82;94632.22;4329835;32;20296;-57
2023/03/06 00:37:52;;;;;;;3.10;2.90;;;;;;;4.81;64.17;94626.38;4335802;32;20298;-55
2023/03/06 00:40:20;;;;;;;3.43;3.00;;;;;;;4.83;64.31;94626.87;4332203;32;20281;-56
2023/03/06 00:42:47;;;;;;;2.57;2.47;;;;;;;4.69;65.00;94619.91;4332661;32;20277;-53
2023/03/06 00:45:14;;;;;;;3.60;3.30;;;;;;;4.68;64.92;94615.72;4305790;32;20390;-53
2023/03/06 00:47:41;;;;;;;1.63;1.53;;;;;;;4.67;64.66;94614.16;4331814;32;20321;-54
2023/03/06 00:50:08;;;;;;;3.50;3.30;;;;;;;4.60;65.12;94609.19;4325310;32;20320;-57
2023/03/06 00:52:33;;;;;;;2.13;2.03;;;;;;;4.70;65.46;94603.09;4344310;32;20289;-55
2023/03/06 00:55:00;;;;;;;2.83;2.63;;;;;;;4.70;65.08;94603.88;4337648;32;20379;-56
2023/03/06 00:57:26;;;;;;;2.90;2.70;;;;;;;4.79;65.06;94596.97;4303268;32;20194;-55
2023/03/06 00:59:54;;;;;;;4.60;3.30;;;;;;;4.70;64.37;94596.00;4341741;32;20270;-60
2023/03/06 01:02:21;;;;;;;3.03;2.73;;;;;;;4.65;64.90;94592.62;4330921;32;20324;-56
2023/03/06 01:04:48;;;;;;;3.47;3.27;;;;;;;4.59;65.10;94586.59;4335806;32;20314;-56
2023/03/06 01:07:26;;;;;;;3.33;3.03;;;;;;;4.71;64.66;94578.41;4326394;32;20353;-56
2023/03/06 01:09:52;;;;;;;3.03;2.83;;;;;;;4.61;65.50;94574.00;4302878;33;20286;-61
2023/03/06 01:12:18;;;;;;;3.27;3.07;;;;;;;4.89;64.70;94569.84;4323052;32;20316;-57
2023/03/06 01:14:45;;;;;;;3.97;3.20;;;;;;;4.76;64.71;94568.63;4344929;32;20203;-55
2023/03/06 01:17:12;;;;;;;2.63;2.47;;;;;;;4.62;65.71;94564.28;4343832;32;20277;-56
2023/03/06 01:19:39;;;;;;;2.90;2.60;;;;;;;4.87;65.58;94564.06;4326193;32;20278;-57
2023/03/06 01:22:07;;;;;;;2.03;1.93;;;;;;;4.73;66.14;94558.69;4324505;32;20281;-56
2023/03/06 01:24:35;;;;;;;4.57;4.17;;;;;;;4.46;67.78;94555.72;4348268;32;20290;-56
2023/03/06 01:27:01;;;;;;;3.60;3.30;;;;;;;4.45;68.37;94560.19;4343499;32;20372;-57
2023/03/06 01:29:27;;;;;;;2.10;2.00;;;;;;;4.29;69.46;94560.56;4319575;32;20282;-56
2023/03/06 01:31:53;;;;;;;4.27;3.40;;;;;;;4.34;69.72;94550.81;4337974;32;20289;-56
2023/03/06 01:34:20;;;;;;;2.77;2.50;;;;;;;4.22;70.03;94547.75;4319197;32;20304;-57
2023/03/06 01:36:49;;;;;;;2.93;2.73;;;;;;;4.22;70.62;94539.88;4333549;32;20327;-55
2023/03/06 01:39:16;;;;;;;3.87;3.50;;;;;;;4.51;69.53;94537.31;4342697;32;20286;-57
2023/03/06 01:41:41;;;;;;;3.73;3.43;;;;;;;4.58;69.45;94535.13;4343749;32;23002;-54
2023/03/06 01:44:12;;;;;;;2.40;2.23;;;;;;;4.62;69.03;94525.66;4320050;32;20302;-56
2023/03/06 01:46:41;;;;;;;4.37;4.07;;;;;;;4.46;69.25;94514.50;4345004;32;20208;-53
2023/03/06 01:49:37;;;;;;;3.07;2.77;;;;;;;4.42;69.76;94515.31;4331184;32;20388;-56
2023/03/06 01:52:13;;;;;;;3.33;2.93;;;;;;;4.54;69.16;94505.25;4317942;32;20290;-55
2023/03/06 01:54:58;;;;;;;3.27;2.83;;;;;;;4.36;69.74;94492.81;4309345;32;20364;-56
2023/03/06 01:57:28;;;;;;;3.73;3.43;;;;;;;4.37;70.05;94489.87;4299210;32;20298;-56
2023/03/06 02:00:07;;;;;;;9.03;3.83;;;;;;;4.58;69.47;94484.44;4346019;32;20290;-57
2023/03/06 02:02:33;;;;;;;2.67;2.47;;;;;;;4.61;69.00;94484.69;4315167;32;20282;-55
2023/03/06 02:05:01;;;;;;;1.93;1.83;;;;;;;4.53;68.56;94477.44;4343004;32;20352;-57
2023/03/06 02:07:27;;;;;;;4.20;3.83;;;;;;;4.32;69.46;94478.66;4335330;32;20310;-56
2023/03/06 02:09:55;;;;;;;2.37;2.27;;;;;;;4.51;69.05;94474.28;4330831;33;20299;-57
2023/03/06 02:12:23;;;;;;;6.77;3.70;;;;;;;4.63;68.50;94476.53;4327273;32;20198;-55
2023/03/06 02:14:51;;;;;;;3.90;3.17;;;;;;;4.50;67.75;94475.34;4327490;32;20295;-55
2023/03/06 02:17:24;;;;;;;4.07;3.77;;;;;;;4.32;68.16;94474.19;4320140;32;20312;-55
2023/03/06 02:20:05;;;;;;;2.57;2.37;;;;;;;4.24;68.67;94473.97;4340939;32;20338;-56
2023/03/06 02:22:42;;;;;;;3.13;2.93;;;;;;;4.51;68.18;94458.53;4344586;32;20293;-56
2023/03/06 02:25:31;;;;;;;3.63;3.33;;;;;;;4.50;68.28;94451.72;4341774;32;20366;-56
2023/03/06 02:28:00;;;;;;;4.37;4.07;;;;;;;4.41;68.29;94454.13;4341122;32;20294;-56
2023/03/06 02:30:28;;;;;;;2.47;2.27;;;;;;;4.56;67.37;94457.72;4318200;32;20301;-58
2023/03/06 02:32:55;;;;;;;2.50;2.40;;;;;;;4.24;68.07;94453.75;4321838;32;20353;-55
2023/03/06 02:35:24;;;;;;;2.60;2.50;;;;;;;4.31;68.37;94442.94;4324256;32;20282;-55
2023/03/06 02:37:52;;;;;;;4.03;3.70;;;;;;;4.21;69.27;94453.53;4308615;32;20334;-53
2023/03/06 02:40:20;;;;;;;4.87;3.23;;;;;;;4.29;69.15;94448.47;4311722;32;20294;-53
2023/03/06 02:42:55;;;;;;;3.40;2.90;;;;;;;4.51;68.17;94434.91;4339861;32;20289;-56
2023/03/06 02:45:47;;;;;;;2.73;2.53;;;;;;;4.49;68.33;94437.00;4338253;32;20285;-56
2023/03/06 02:48:17;;;;;;;2.60;2.47;;;;;;;4.46;68.34;94432.31;4340698;32;20431;-55
2023/03/06 02:50:46;;;;;;;2.63;2.53;;;;;;;4.20;69.09;94430.97;4330746;32;20427;-56
2023/03/06 02:53:19;;;;;;;2.57;2.47;;;;;;;4.29;68.90;94429.31;4335967;32;20324;-56
2023/03/06 02:55:45;;;;;;;4.30;3.90;;;;;;;4.52;67.77;94428.59;4284118;33;20299;-57
2023/03/06 02:58:12;;;;;;;3.03;2.90;;;;;;;4.54;67.35;94429.09;4322638;32;20285;-57
2023/03/06 03:00:39;;;;;;;4.40;3.53;;;;;;;4.37;67.88;94421.63;4340266;32;20336;-55
2023/03/06 03:03:10;;;;;;;3.77;3.23;;;;;;;4.42;68.26;94413.69;4327803;32;20308;-55
2023/03/06 03:05:36;;;;;;;7.50;4.23;;;;;;;4.40;67.89;94418.44;4341640;32;20292;-57
2023/03/06 03:08:03;;;;;;;4.07;3.77;;;;;;;4.45;68.04;94415.00;4347295;32;20298;-54
2023/03/06 03:10:29;;;;;;;4.10;3.80;;;;;;;4.44;68.10;94414.22;4338114;32;20323;-53
2023/03/06 03:12:57;;;;;;;2.93;2.80;;;;;;;4.36;68.90;94406.94;4356148;32;20272;-56
2023/03/06 03:15:25;;;;;;;3.30;3.10;;;;;;;4.36;68.81;94404.31;4357534;32;20281;-55
2023/03/06 03:17:52;;;;;;;6.43;3.73;;;;;;;4.31;69.22;94406.19;4339972;32;20333;-56
2023/03/06 03:20:20;;;;;;;1.80;1.80;;;;;;;4.48;68.28;94407.34;4357919;32;20305;-56
2023/03/06 03:22:50;;;;;;;4.10;3.90;;;;;;;4.28;68.87;94404.13;4360881;32;20281;-56
2023/03/06 03:25:19;;;;;;;2.97;2.87;;;;;;;4.51;68.70;94402.59;4338425;32;20290;-55
2023/03/06 03:27:49;;;;;;;4.10;3.20;;;;;;;4.50;68.61;94409.69;4313768;32;20289;-56
2023/03/06 03:30:14;;;;;;;3.57;3.37;;;;;;;4.55;68.19;94401.78;4358728;32;20289;-56
2023/03/06 03:32:41;;;;;;;2.37;2.27;;;;;;;4.47;68.26;94397.91;4328349;32;20333;-55
2023/03/06 03:35:10;;;;;;;2.60;2.40;;;;;;;4.41;68.61;94391.13;4330502;32;20197;-54
2023/03/06 03:37:36;;;;;;;3.00;2.80;;;;;;;4.35;68.71;94391.47;4329680;32;20300;-55
2023/03/06 03:40:05;;;;;;;2.70;2.50;;;;;;;4.27;69.17;94394.69;4343817;32;20290;-56
2023/03/06 03:42:33;;;;;;;3.37;3.17;;;;;;;4.31;69.33;94399.13;4300263;33;20294;-55
2023/03/06 03:44:59;;;;;;;2.90;2.70;;;;;;;4.38;68.83;94389.06;4343593;32;20323;-56
2023/03/06 03:47:25;;;;;;;3.57;3.37;;;;;;;4.47;68.28;94384.78;4340115;32;20281;-56
2023/03/06 03:49:55;;;;;;;3.20;2.90;;;;;;;4.30;69.25;94383.63;4355063;32;20301;-55
2023/03/06 03:52:21;;;;;;;4.97;3.97;;;;;;;4.28;69.29;94381.28;4338808;32;20241;-56
2023/03/06 03:54:47;;;;;;;3.10;2.93;;;;;;;4.27;69.36;94381.56;4362697;32;20288;-56
2023/03/06 03:57:14;;;;;;;2.40;2.30;;;;;;;4.35;69.13;94383.59;4351122;32;20349;-55
2023/03/06 03:59:40;;;;;;;3.03;2.70;;;;;;;4.31;69.35;94379.94;4305089;32;20298;-56
2023/03/06 04:02:05;;;;;;;4.00;3.70;;;;;;;4.34;69.19;94382.03;4319504;32;20308;-56
2023/03/06 04:04:34;;;;;;;3.37;3.17;;;;;;;4.48;68.67;94382.94;4302813;32;20366;-57
2023/03/06 04:07:00;;;;;;;3.17;2.97;;;;;;;4.48;68.59;94381.09;4313875;32;20198;-56
2023/03/06 04:09:32;;;;;;;3.23;3.03;;;;;;;4.46;68.71;94377.19;4322066;32;20294;-56
2023/03/06 04:12:00;;;;;;;3.13;2.93;;;;;;;4.36;68.64;94383.31;4354862;32;20296;-56
2023/03/06 04:14:26;;;;;;;5.17;3.33;;;;;;;4.46;68.70;94374.53;4352216;32;20289;-57
2023/03/06 04:16:52;;;;;;;3.13;2.93;;;;;;;4.29;69.25;94367.09;4316101;32;20297;-56
2023/03/06 04:19:20;;;;;;;3.47;2.90;;;;;;;4.25;70.04;94363.47;4363250;32;20329;-55
2023/03/06 04:21:47;;;;;;;4.60;4.17;;;;;;;4.28;69.68;94360.28;4357642;32;20421;-55
2023/03/06 04:24:16;;;;;;;4.17;3.60;;;;;;;4.49;68.76;94356.41;4360924;32;20360;-55
2023/03/06 04:26:43;;;;;;;3.20;3.00;;;;;;;4.39;69.27;94355.72;4308384;33;20282;-55
2023/03/06 04:29:09;;;;;;;3.23;3.03;;;;;;;4.20;69.49;94354.84;4343115;32;20300;-55
2023/03/06 04:31:36;;;;;;;3.37;3.07;;;;;;;4.42;69.28;94344.66;4329019;32;20340;-55
2023/03/06 04:34:07;;;;;;;2.73;2.53;;;;;;;4.34;69.53;94353.16;4351410;32;20305;-57
2023/03/06 04:36:33;;;;;;;3.13;2.93;;;;;;;4.39;69.12;94350.44;4349897;32;20308;-56
2023/03/06 04:39:00;;;;;;;7.23;3.93;;;;;;;4.12;69.98;94351.78;4330610;32;20331;-55
2023/03/06 04:41:27;;;;;;;3.23;3.03;;;;;;;4.19;69.41;94351.44;4347621;32;20276;-54
2023/03/06 04:43:53;;;;;;;4.80;4.20;;;;;;;4.36;69.24;94346.56;4360499;32;20196;-56
2023/03/06 04:46:21;;;;;;;4.50;2.60;;;;;;;4.42;69.03;94348.06;4331249;32;20342;-57
2023/03/06 04:48:49;;;;;;;3.77;3.20;;;;;;;4.35;68.92;94354.72;4305078;32;20308;-57
2023/03/06 04:51:21;;;;;;;3.83;3.13;;;;;;;4.27;69.32;94350.84;4346480;32;20305;-54
2023/03/06 04:53:52;;;;;;;4.27;3.97;;;;;;;4.12;69.35;94343.91;4359779;32;20356;-56
2023/03/06 04:56:17;;;;;;;4.30;4.00;;;;;;;4.22;69.36;94344.84;4320382;32;20332;-56
2023/03/06 04:58:43;;;;;;;9.37;4.20;;;;;;;4.40;68.55;94346.78;4334184;32;20297;-55
2023/03/06 05:01:10;;;;;;;4.50;4.10;;;;;;;4.40;68.09;94339.69;4328989;32;20216;-57
2023/03/06 05:03:38;;;;;;;2.00;1.90;;;;;;;4.24;68.90;94345.37;4337084;32;20282;-55
2023/03/06 05:06:15;;;;;;;4.43;3.60;;;;;;;4.07;69.96;94338.69;4349403;32;20304;-55
2023/03/06 05:08:41;;;;;;;3.13;2.93;;;;;;;4.11;70.19;94350.22;4312733;32;20293;-54
2023/03/06 05:11:08;;;;;;;3.00;2.80;;;;;;;4.18;70.43;94336.75;4313307;32;20380;-53
2023/03/06 05:13:37;;;;;;;3.77;3.57;;;;;;;4.23;70.87;94330.69;4343913;32;20342;-54
2023/03/06 05:16:10;;;;;;;2.47;2.37;;;;;;;4.09;71.68;94336.59;4359415;32;20293;-56
2023/03/06 05:18:37;;;;;;;3.73;2.73;;;;;;;4.27;71.69;94329.84;4343784;32;20282;-56
2023/03/06 05:21:08;;;;;;;2.67;2.57;;;;;;;4.12;72.30;94328.16;4347494;32;20307;-56
2023/03/06 05:23:37;;;;;;;2.67;2.57;;;;;;;4.19;72.31;94332.28;4311892;32;20341;-55
2023/03/06 05:26:10;;;;;;;2.60;2.43;;;;;;;4.11;72.59;94331.84;4298933;32;20296;-56
2023/03/06 05:28:37;;;;;;;3.63;3.03;;;;;;;4.02;72.73;94330.87;4314829;32;20305;-55
2023/03/06 05:31:04;;;;;;;6.70;4.43;;;;;;;4.04;73.16;94328.75;4324915;32;20308;-56
2023/03/06 05:33:32;;;;;;;3.70;3.50;;;;;;;3.98;73.19;94329.84;4317368;32;20368;-56
2023/03/06 05:35:59;;;;;;;4.50;3.13;;;;;;;4.12;72.75;94325.53;4321502;32;20289;-56
2023/03/06 05:38:28;;;;;;;2.97;2.73;;;;;;;4.34;71.80;94324.28;4336092;32;20301;-56
2023/03/06 05:40:55;;;;;;;4.70;4.37;;;;;;;4.17;72.64;94319.44;4305204;32;20290;-57
2023/03/06 05:43:20;;;;;;;3.47;3.17;;;;;;;4.30;71.77;94321.41;4347939;32;20273;-55
2023/03/06 05:45:49;;;;;;;4.87;3.27;;;;;;;4.19;72.21;94319.16;4343965;32;20295;-57
2023/03/06 05:48:16;;;;;;;3.07;2.80;;;;;;;4.34;71.61;94319.81;4334184;32;20193;-55
2023/03/06 05:50:42;;;;;;;3.53;3.37;;;;;;;4.08;72.93;94319.28;4357128;32;20325;-56
2023/03/06 05:53:11;;;;;;;3.93;3.70;;;;;;;4.16;72.41;94325.75;4339130;32;20285;-55
2023/03/06 05:55:37;;;;;;;4.80;2.07;;;;;;;4.27;71.92;94323.81;4334377;32;20343;-56
2023/03/06 05:58:05;;;;;;;3.30;3.20;;;;;;;4.12;72.03;94320.28;4352829;32;20355;-56
2023/03/06 06:00:30;;;;;;;4.50;4.10;;;;;;;4.03;73.19;94331.66;4313873;32;20329;-57
2023/03/06 06:02:59;;;;;;;4.47;4.17;;;;;;;4.16;72.70;94330.25;4320694;32;20365;-54
2023/03/06 06:05:27;;;;;;;3.37;3.00;;;;;;;4.26;72.52;94322.25;4340246;32;20189;-57
2023/03/06 06:07:55;;;;;;;3.30;3.00;;;;;;;4.04;73.10;94328.75;4340876;32;20329;-55
2023/03/06 06:10:22;;;;;;;9.00;3.53;;;;;;;4.02;73.58;94325.63;4353614;32;20359;-57
2023/03/06 06:12:50;;;;;;;5.80;2.70;;;;;;;3.67;74.88;94331.97;4313846;32;20325;-57
2023/03/06 06:15:16;;;;;;;3.63;3.33;;;;;;;3.71;75.26;94330.34;4329657;32;20305;-54
2023/03/06 06:17:42;;;;;;;3.27;2.77;;;;;;;3.82;74.62;94333.66;4342450;32;20361;-54
2023/03/06 06:20:10;;;;;;;4.13;3.87;;;;;;;4.04;74.34;94336.63;4309025;32;20308;-53
2023/03/06 06:22:36;;;;;;;9.77;2.73;;;;;;;3.90;74.82;94333.09;4328219;32;20234;-56
2023/03/06 06:25:04;;;;;;;3.37;3.17;;;;;;;4.16;73.31;94335.50;4336866;32;20305;-57
2023/03/06 06:27:31;;;;;;;3.07;2.87;;;;;;;4.25;72.57;94328.56;4341092;32;20304;-56
2023/03/06 06:29:57;;;;;;;3.97;2.60;;;;;;;4.56;70.74;94335.06;4316873;32;20346;-54
2023/03/06 06:32:25;;;;;;;2.77;2.67;;;;;;;4.52;70.74;94335.91;4353832;32;20317;-57
2023/03/06 06:34:50;;;;;;;3.17;2.97;;;;;;;4.76;69.21;94337.47;4340382;32;20205;-52
2023/03/06 06:37:17;;;;;;;5.60;3.93;;;;;;;4.68;69.71;94348.56;4323828;32;20449;-56
2023/03/06 06:39:43;;;;;;;4.67;2.67;;;;;;;4.66;69.79;94344.66;4325909;32;20216;-56
2023/03/06 06:42:10;;;;;;;4.07;3.77;;;;;;;4.47;69.17;94341.97;4330973;32;20300;-54
2023/03/06 06:44:39;;;;;;;4.00;2.10;;;;;;;4.32;68.38;94342.94;4304585;32;20299;-56
2023/03/06 06:47:06;;;;;;;3.43;3.23;;;;;;;4.03;69.21;94357.88;4323944;32;20329;-56
2023/03/06 06:49:32;;;;;;;4.33;4.13;;;;;;;4.04;69.24;94356.84;4320250;32;20285;-55
2023/03/06 06:51:59;;;;;;;3.30;3.00;;;;;;;4.19;68.39;94350.66;4279175;33;20325;-56
2023/03/06 06:54:27;;;;;;;3.13;2.47;;;;;;;4.19;68.09;94353.28;4323707;32;20308;-57
2023/03/06 06:56:57;;;;;;;4.10;3.80;;;;;;;3.86;68.44;94347.03;4305249;33;20283;-55
2023/03/06 06:59:24;;;;;;;3.57;3.27;;;;;;;3.74;69.72;94350.75;4314730;32;20287;-57
2023/03/06 07:01:51;;;;;;;4.47;4.10;;;;;;;3.80;70.20;94359.38;4332786;32;20285;-55
2023/03/06 07:04:18;;;;;;;4.40;4.00;;;;;;;4.04;68.92;94355.00;4340418;32;20356;-54
2023/03/06 07:06:45;;;;;;;4.37;4.07;;;;;;;4.12;68.25;94354.41;4315454;32;20383;-53
2023/03/06 07:09:13;;;;;;;3.63;3.43;;;;;;;3.90;68.99;94358.53;4350699;32;20371;-55
2023/03/06 07:11:39;;;;;;;4.60;4.30;;;;;;;4.04;68.38;94355.00;4338088;32;20339;-55
2023/03/06 07:14:06;;;;;;;4.17;3.67;;;;;;;4.11;68.14;94355.47;4336603;32;20320;-56
2023/03/06 07:16:33;;;;;;;4.63;3.90;;;;;;;4.11;67.33;94349.44;4346204;32;20365;-57
2023/03/06 07:19:01;;;;;;;4.23;3.83;;;;;;;4.04;67.93;94352.38;4357773;32;20299;-54
2023/03/06 07:21:28;;;;;;;5.77;4.03;;;;;;;4.20;67.33;94358.25;4343042;32;20360;-58
2023/03/06 07:23:56;;;;;;;1.43;1.33;;;;;;;4.06;68.01;94354.72;4343163;32;20327;-53
2023/03/06 07:26:24;;;;;;;2.43;2.33;;;;;;;4.71;83.12;94352.50;4364262;32;20336;-56
2023/03/06 07:28:52;;;;;;;2.20;2.10;;;;;;;6.23;100.00;94339.06;4349764;32;20335;-59
2023/03/06 07:31:25;;;;;;;3.30;3.00;;;;;;;7.14;100.00;94337.31;4337291;32;20311;-58
2023/03/06 07:33:53;;;;;;;3.60;3.30;;;;;;;7.53;85.77;94340.13;4341085;32;20387;-58
2023/03/06 07:36:21;;;;;;;3.67;3.43;;;;;;;8.45;84.89;94335.34;4328747;32;20304;-58
2023/03/06 07:38:51;;;;;;;3.20;2.97;;;;;;;8.90;77.23;94328.84;4324883;32;20413;-59
2023/03/06 07:41:18;;;;;;;2.90;2.70;;;;;;;9.16;75.76;94331.53;4308208;32;20305;-59
2023/03/06 07:43:46;;;;;;;3.17;2.97;;;;;;;9.80;81.12;94338.91;4341776;32;20335;-59
2023/03/06 07:46:13;;;;;;;3.77;3.47;;;;;;;9.79;67.50;94342.66;4346920;32;20282;-59
2023/03/06 07:48:43;;;;;;;3.77;3.47;;;;;;;10.07;69.46;94343.91;4340937;32;20296;-59
2023/03/06 07:51:19;;;;;;;3.93;3.63;;;;;;;10.27;65.86;94343.28;4345556;32;20268;-59
2023/03/06 07:53:49;;;;;;;3.23;3.03;;;;;;;10.05;57.37;94342.66;4314336;32;20185;-59
2023/03/06 07:56:18;;;;;;;2.67;2.43;;;;;;;10.66;69.57;94338.78;4301313;32;20202;-59
2023/03/06 07:58:46;;;;;;;3.37;3.07;;;;;;;11.10;77.76;94347.34;4325476;32;20279;-59
2023/03/06 08:01:17;;;;;;;2.80;2.70;;;;;;;11.48;77.70;94352.59;4347892;32;20193;-59
2023/03/06 08:03:44;;;;;;;2.77;2.67;;;;;;;11.18;62.02;94351.84;4341441;32;20194;-59
2023/03/06 08:06:26;;;;;;;2.77;2.60;;;;;;;11.75;70.77;94348.66;4360505;32;20201;-59
2023/03/06 08:08:54;;;;;;;2.50;2.40;;;;;;;11.60;67.20;94348.16;4355789;32;20247;-56
2023/03/06 08:11:28;;;;;;;4.00;3.73;;;;;;;11.00;53.08;94354.59;4343492;32;20218;-54
2023/03/06 08:13:58;;;;;;;12.33;3.63;;;;;;;9.72;51.00;94360.91;4325610;32;20220;-56
2023/03/06 08:16:28;;;;;;;3.40;3.20;;;;;;;8.88;52.73;94357.47;4344357;32;20207;-59
2023/03/06 08:18:57;;;;;;;3.97;3.67;;;;;;;7.78;56.36;94372.31;4346161;32;20227;-54
2023/03/06 08:21:25;;;;;;;3.20;3.03;;;;;;;6.84;59.88;94371.13;4326740;32;20204;-53
2023/03/06 08:23:54;;;;;;;3.53;3.33;;;;;;;6.67;61.42;94370.13;4341744;32;20240;-54
2023/03/06 08:26:45;;;;;;;3.87;3.67;;;;;;;6.11;63.97;94374.50;4311727;33;20186;-54
2023/03/06 08:29:14;;;;;;;3.43;3.17;;;;;;;5.76;65.63;94372.41;4333943;32;20297;-53
2023/03/06 08:31:45;;;;;;;3.47;3.27;;;;;;;5.89;66.52;94371.69;4348766;32;20278;-55
2023/03/06 08:34:19;;;;;;;3.00;2.90;;;;;;;5.95;66.08;94378.47;4317272;32;20360;-54
2023/03/06 08:36:45;;;;;;;2.77;2.67;;;;;;;5.73;66.86;94378.25;4326604;32;20370;-53
2023/03/06 08:39:12;;;;;;;2.93;2.60;;;;;;;5.23;68.52;94385.75;4284991;32;20373;-53
2023/03/06 08:41:39;;;;;;;3.77;3.03;;;;;;;5.25;69.41;94381.00;4308175;32;20248;-54
2023/03/06 08:44:06;;;;;;;4.30;3.27;;;;;;;5.32;69.53;94384.06;4323580;32;20332;-52
2023/03/06 08:46:33;;;;;;;2.43;2.33;;;;;;;5.36;69.00;94385.06;4342490;32;20372;-53
2023/03/06 08:48:58;;;;;;;5.80;2.90;;;;;;;5.51;69.17;94379.59;4330190;32;20367;-55
2023/03/06 08:51:46;;;;;;;2.70;2.50;;;;;;;5.42;69.00;94381.28;4349440;32;20302;-53
2023/03/06 08:54:13;;;;;;;4.20;3.13;;;;;;;5.74;68.61;94377.97;4350725;32;20229;-55
2023/03/06 08:56:40;;;;;;;2.93;2.73;;;;;;;5.61;68.98;94385.78;4334419;32;20345;-54
2023/03/06 08:59:07;;;;;;;3.07;2.93;;;;;;;5.63;69.27;94384.41;4308163;32;20294;-54
2023/03/06 09:01:39;;;;;;;2.87;2.67;;;;;;;5.77;68.89;94395.81;4316774;32;20344;-53
2023/03/06 09:04:10;;;;;;;2.17;2.07;;;;;;;5.61;69.11;94391.06;4329913;32;20317;-53
2023/03/06 09:06:45;;;;;;;2.27;2.17;;;;;;;5.82;68.90;94393.06;4293918;32;20299;-55
2023/03/06 09:09:13;;;;;;;3.83;3.63;;;;;;;5.95;68.28;94383.72;4359392;32;20335;-55
2023/03/06 09:11:40;;;;;;;3.17;2.97;;;;;;;6.07;67.74;94384.03;4360813;32;20284;-54
2023/03/06 09:14:09;;;;;;;9.23;3.47;;;;;;;6.23;66.04;94381.19;4348376;32;20347;-50
2023/03/06 09:16:35;;;;;;;3.63;2.93;;;;;;;6.24;65.12;94377.44;4359556;32;20293;-52
2023/03/06 09:19:02;;;;;;;2.87;2.73;;;;;;;6.04;65.57;94389.09;4332071;32;20320;-57
2023/03/06 09:21:28;;;;;;;3.23;3.03;;;;;;;6.15;66.00;94393.94;4349998;32;20266;-57
2023/03/06 09:23:55;;;;;;;3.10;2.77;;;;;;;6.31;64.85;94383.91;4338590;32;20292;-57
2023/03/06 09:26:23;;;;;;;3.47;3.27;;;;;;;6.33;64.52;94381.78;4327640;32;20289;-54
2023/03/06 09:28:50;;;;;;;3.20;3.00;;;;;;;6.42;64.13;94387.97;4330279;32;20329;-56
2023/03/06 09:31:35;;;;;;;3.90;3.60;;;;;;;6.39;63.40;94380.62;4328461;32;20300;-54
2023/03/06 09:34:02;;;;;;;2.83;2.70;;;;;;;6.34;62.89;94380.72;4314526;32;20344;-55
2023/03/06 09:36:29;;;;;;;3.53;3.33;;;;;;;6.66;61.67;94390.41;4344276;32;20290;-52
2023/03/06 09:38:56;;;;;;;3.60;3.37;;;;;;;6.77;62.15;94383.13;4355272;32;20292;-57
2023/03/06 09:41:34;;;;;;;3.13;2.93;;;;;;;6.60;60.99;94385.53;4346358;32;20332;-57
2023/03/06 09:44:18;;;;;;;2.33;2.13;;;;;;;6.86;60.19;94383.97;4338997;32;20264;-58
2023/03/06 09:47:13;;;;;;;8.93;3.20;;;;;;;6.63;60.60;94388.38;4307277;32;20369;-58
2023/03/06 09:49:43;;;;;;;3.73;3.43;;;;;;;6.70;59.30;94385.34;4338572;32;20340;-57
2023/03/06 09:52:44;;;;;;;1.83;1.80;;;;;;;6.57;62.27;94381.63;4346886;32;20290;-58
2023/03/06 09:55:30;;;;;;;2.70;2.57;;;;;;;6.79;61.80;94381.75;4325456;32;20284;-59
2023/03/06 09:58:19;;;;;;;3.10;2.90;;;;;;;6.72;59.46;94377.94;4324404;32;20320;-58
2023/03/06 10:01:33;;;;;;;2.70;2.50;;;;;;;6.83;58.59;94379.31;4337728;32;20368;-59
2023/03/06 10:04:24;;;;;;;2.80;2.60;;;;;;;6.90;57.86;94379.69;4316473;32;20287;-59
2023/03/06 10:07:12;;;;;;;3.63;3.33;;;;;;;6.61;58.55;94381.84;4285844;33;20298;-59
2023/03/06 10:09:55;;;;;;;3.93;3.63;;;;;;;6.92;58.10;94382.03;4330779;32;20296;-58
2023/03/06 10:12:44;;;;;;;3.33;3.03;;;;;;;6.59;56.96;94379.50;4299053;32;20297;-58
2023/03/06 10:15:26;;;;;;;6.33;3.87;;;;;;;6.41;57.89;94375.87;4340729;32;20304;-54
2023/03/06 10:17:53;;;;;;;2.90;2.70;;;;;;;6.43;58.34;94380.84;4346160;32;20289;-57
2023/03/06 10:20:25;;;;;;;2.77;2.60;;;;;;;6.42;57.99;94384.53;4360252;32;20281;-58
2023/03/06 10:23:30;;;;;;;3.17;2.97;;;;;;;6.38;57.97;94380.91;4343176;32;20332;-56
2023/03/06 10:26:09;;;;;;;3.13;2.87;;;;;;;6.37;58.26;94376.72;4289741;32;20286;-54
2023/03/06 10:29:00;;;;;;;6.23;3.00;;;;;;;6.24;57.81;94377.44;4333675;32;20281;-56
2023/03/06 10:31:27;;;;;;;2.73;2.63;;;;;;;6.07;58.75;94384.03;4311782;32;20285;-58
2023/03/06 10:33:57;;;;;;;4.63;3.07;;;;;;;6.10;58.51;94386.09;4337549;32;20309;-55
2023/03/06 10:36:27;;;;;;;2.07;1.97;;;;;;;6.01;57.90;94382.59;4322723;32;20304;-57
2023/03/06 10:38:58;;;;;;;3.00;2.80;;;;;;;6.06;57.89;94385.13;4357942;32;20285;-55
2023/03/06 10:41:34;;;;;;;2.83;2.63;;;;;;;6.24;58.26;94375.59;4319060;32;20285;-58
2023/03/06 10:44:03;;;;;;;1.77;1.37;;;;;;;6.15;58.81;94375.50;4353725;32;20328;-57
2023/03/06 10:46:35;;;;;;;2.73;2.53;;;;;;;6.30;59.05;94366.56;4354738;32;20342;-53
2023/03/06 10:49:05;;;;;;;2.30;2.20;;;;;;;6.25;59.65;94365.84;4333066;32;20305;-54
2023/03/06 10:51:34;;;;;;;2.10;1.90;;;;;;;6.32;58.70;94368.91;4320153;32;20388;-55
2023/03/06 10:54:16;;;;;;;5.53;3.37;;;;;;;6.24;59.01;94372.97;4309690;32;20349;-57
2023/03/06 10:56:44;;;;;;;2.47;2.27;;;;;;;6.08;58.79;94369.03;4361845;32;20289;-54
2023/03/06 10:59:28;;;;;;;3.07;2.87;;;;;;;6.20;58.82;94370.16;4337082;32;20348;-54
2023/03/06 11:02:20;;;;;;;4.13;3.20;;;;;;;6.23;58.93;94360.91;4311344;32;20350;-58
2023/03/06 11:04:51;;;;;;;4.43;2.37;;;;;;;6.22;58.70;94355.94;4292459;33;20291;-53
2023/03/06 11:07:23;;;;;;;2.30;2.20;;;;;;;6.19;59.84;94360.69;4316672;33;20365;-57
2023/03/06 11:09:59;;;;;;;2.60;2.40;;;;;;;6.30;59.98;94365.78;4308725;33;20291;-56
2023/03/06 11:12:44;;;;;;;4.60;4.20;;;;;;;6.10;60.09;94361.63;4313255;32;20290;-54
2023/03/06 11:15:23;;;;;;;1.97;1.93;;;;;;;5.95;60.55;94365.28;4311056;32;20321;-56
2023/03/06 11:18:10;;;;;;;4.33;2.70;;;;;;;5.69;60.78;94358.81;4318522;32;20302;-58
2023/03/06 11:20:52;;;;;;;3.57;3.37;;;;;;;5.96;60.54;94361.59;4312849;32;20301;-58
2023/03/06 11:23:20;;;;;;;2.77;2.57;;;;;;;6.18;60.21;94361.75;4304391;33;20294;-58
2023/03/06 11:25:55;;;;;;;2.10;1.97;;;;;;;6.19;60.47;94344.91;4340569;32;20285;-58
2023/03/06 11:28:41;;;;;;;3.87;3.33;;;;;;;6.19;59.51;94338.84;4307783;32;20290;-58
2023/03/06 11:31:21;;;;;;;3.27;2.83;;;;;;;6.06;59.77;94335.09;4260675;33;20351;-58
2023/03/06 11:33:54;;;;;;;3.17;2.97;;;;;;;6.08;59.39;94342.72;4256771;33;20321;-58
2023/03/06 11:36:44;;;;;;;2.67;2.47;;;;;;;5.91;60.39;94335.34;4262913;33;20338;-58
2023/03/06 11:39:38;;;;;;;1.63;1.63;;;;;;;6.06;60.20;94340.38;4325389;32;20313;-58
2023/03/06 11:42:27;;;;;;;2.63;2.43;;;;;;;6.44;59.82;94341.00;4322872;32;20332;-58
2023/03/06 11:45:12;;;;;;;1.93;1.83;;;;;;;6.12;60.84;94349.75;4291937;33;20286;-59
2023/03/06 11:48:23;;;;;;;3.83;3.53;;;;;;;6.17;60.24;94349.66;4340833;32;20357;-59
2023/03/06 11:51:12;;;;;;;3.07;2.87;;;;;;;6.27;59.53;94345.28;4330670;32;20278;-58
2023/03/06 11:53:39;;;;;;;2.20;2.10;;;;;;;5.95;60.23;94360.03;4295742;32;20372;-58
2023/03/06 11:56:33;;;;;;;4.30;3.93;;;;;;;6.00;59.93;94341.53;4315617;32;20300;-58
2023/03/06 11:59:27;;;;;;;2.70;2.47;;;;;;;5.95;60.72;94354.78;4340279;32;20274;-58